Hudson — CGDG — position and weather

sailwx.info

Track history (hours):
 
Tides and Currents Weather Stations Pressure Air Temp Water Temp Dewpoint Dewpoint Depression Visibility Wind Speed Wind Dir Waves Ship Positions

Oceanographic research ship Hudson (Canada)

Detailed information on ship capabilities available from University of Delaware's Ocean Information Center.

Last reported at 2014-Jul-08 14:25 UTC. Time now 2014-Jul-25 06:45 UTC.
Position N 47°35' W 052°29'.
Warning: this ship's position is 16 days out of date.

Length 85.03 m; beam 15.2 m; draft 6.28 m.

Type: SAR. MMSI: 316024000.

Date/timePositionNaut miles runAvg speedWind from/ knotsBaromVisibWave heightAir tempDewpointWater temp
2014-Jul-08 14:25N 47°35' W 052°29'7 7.9
2014-Jul-08 13:30N 47°33' W 052°39'10 9.6
2014-Jul-08 12:29N 47°36' W 052°25'  
2014-Jun-30 17:33N 44°33' W 063°32'9 9.1
2014-Jun-30 16:33N 44°41' W 063°38'1 0.8
2014-Jun-30 15:33N 44°42' W 063°39'0 0.0
2014-Jun-30 14:33N 44°42' W 063°39'0 0.4
2014-Jun-30 13:33N 44°41' W 063°38'1 1.0
2014-Jun-30 12:27N 44°41' W 063°37'0 0.0
2014-Jun-30 11:30N 44°41' W 063°37'0 0.0
2014-Jun-30 10:30N 44°41' W 063°37'0 0.0
2014-Jun-30 09:30N 44°41' W 063°37'0 0.0
2014-Jun-30 08:33N 44°41' W 063°37'0 0.0
2014-Jun-30 07:33N 44°41' W 063°37'0 0.0
2014-Jun-30 06:33N 44°41' W 063°37'0 0.0
2014-Jun-30 05:33N 44°41' W 063°37'0 0.0
2014-Jun-30 04:33N 44°41' W 063°37'0 0.0
2014-Jun-30 03:33N 44°41' W 063°37'0 0.0
2014-Jun-30 02:33N 44°41' W 063°37'0 0.0
2014-Jun-30 01:24N 44°41' W 063°37'0 0.0
2014-Jun-30 00:27N 44°41' W 063°37'0 0.0
2014-Jun-29 23:27N 44°41' W 063°37'0 0.0
2014-Jun-29 22:27N 44°41' W 063°37'0 0.0
2014-Jun-29 21:30N 44°41' W 063°37'0 0.0
2014-Jun-29 20:30N 44°41' W 063°37'0 0.0
2014-Jun-29 19:27N 44°41' W 063°37'0 0.0
2014-Jun-29 18:33N 44°41' W 063°37'0 0.0
2014-Jun-29 17:18N 44°41' W 063°37'0 0.0
2014-Jun-29 16:33N 44°41' W 063°37'0 0.0
2014-Jun-29 15:33N 44°41' W 063°37'0 0.0
2014-Jun-29 14:33N 44°41' W 063°37'0 0.0
2014-Jun-29 13:33N 44°41' W 063°37'0 0.0
2014-Jun-29 12:33N 44°41' W 063°37'0 0.0
2014-Jun-29 11:24N 44°41' W 063°37'0 0.0
2014-Jun-29 10:27N 44°41' W 063°37'0 0.0
2014-Jun-29 09:24N 44°41' W 063°37'0 0.0
2014-Jun-29 08:27N 44°41' W 063°37'0 0.0
2014-Jun-29 07:30N 44°41' W 063°37'0 0.0
2014-Jun-29 06:30N 44°41' W 063°37'0 0.0
2014-Jun-29 05:30N 44°41' W 063°37'0 0.0
2014-Jun-29 04:33N 44°41' W 063°37'0 0.0
2014-Jun-29 03:33N 44°41' W 063°37'0 0.0
2014-Jun-29 02:33N 44°41' W 063°37'0 0.0
2014-Jun-29 01:33N 44°41' W 063°37'0 0.0
2014-Jun-29 00:33N 44°41' W 063°37'0 0.0
2014-Jun-28 23:33N 44°41' W 063°37'0 0.0
2014-Jun-28 22:24N 44°41' W 063°37'0 0.0
2014-Jun-28 21:24N 44°41' W 063°37'0 0.0
2014-Jun-28 20:27N 44°41' W 063°37'0 0.0
2014-Jun-28 19:27N 44°41' W 063°37'0 0.0
2014-Jun-28 18:27N 44°41' W 063°37'0 0.0
2014-Jun-28 17:30N 44°41' W 063°37'0 0.0
2014-Jun-28 16:30N 44°41' W 063°37'0 0.0
2014-Jun-28 15:30N 44°41' W 063°37'0 0.0
2014-Jun-28 14:33N 44°41' W 063°37'  
Track history (hours):
 
Tides and Currents Weather Stations Pressure Air Temp Water Temp Dewpoint Dewpoint Depression Visibility Wind Speed Wind Dir Waves Ship Positions

Oceanographic research ship Hudson (Canada)

Detailed information on ship capabilities available from University of Delaware's Ocean Information Center.

Last reported at 2014-Jul-08 14:25 UTC. Time now 2014-Jul-25 06:45 UTC.
Position N 47°35' W 052°29'.
Warning: this ship's position is 16 days out of date.

Length 85.03 m; beam 15.2 m; draft 6.28 m.

Type: SAR. MMSI: 316024000.

Date/timePositionNaut miles runAvg speedWind from/ knotsBaromVisibWave heightAir tempDewpointWater temp
2014-Jul-08 14:25N 47°35' W 052°29'7 7.9
2014-Jul-08 13:30N 47°33' W 052°39'10 9.6
2014-Jul-08 12:29N 47°36' W 052°25'  
2014-Jun-30 17:33N 44°33' W 063°32'9 9.1
2014-Jun-30 16:33N 44°41' W 063°38'1 0.8
2014-Jun-30 15:33N 44°42' W 063°39'0 0.0
2014-Jun-30 14:33N 44°42' W 063°39'0 0.4
2014-Jun-30 13:33N 44°41' W 063°38'1 1.0
2014-Jun-30 12:27N 44°41' W 063°37'0 0.0
2014-Jun-30 11:30N 44°41' W 063°37'0 0.0
2014-Jun-30 10:30N 44°41' W 063°37'0 0.0
2014-Jun-30 09:30N 44°41' W 063°37'0 0.0
2014-Jun-30 08:33N 44°41' W 063°37'0 0.0
2014-Jun-30 07:33N 44°41' W 063°37'0 0.0
2014-Jun-30 06:33N 44°41' W 063°37'0 0.0
2014-Jun-30 05:33N 44°41' W 063°37'0 0.0
2014-Jun-30 04:33N 44°41' W 063°37'0 0.0
2014-Jun-30 03:33N 44°41' W 063°37'0 0.0
2014-Jun-30 02:33N 44°41' W 063°37'0 0.0
2014-Jun-30 01:24N 44°41' W 063°37'0 0.0
2014-Jun-30 00:27N 44°41' W 063°37'0 0.0
2014-Jun-29 23:27N 44°41' W 063°37'0 0.0
2014-Jun-29 22:27N 44°41' W 063°37'0 0.0
2014-Jun-29 21:30N 44°41' W 063°37'0 0.0
2014-Jun-29 20:30N 44°41' W 063°37'0 0.0
2014-Jun-29 19:27N 44°41' W 063°37'0 0.0
2014-Jun-29 18:33N 44°41' W 063°37'0 0.0
2014-Jun-29 17:18N 44°41' W 063°37'0 0.0
2014-Jun-29 16:33N 44°41' W 063°37'0 0.0
2014-Jun-29 15:33N 44°41' W 063°37'0 0.0
2014-Jun-29 14:33N 44°41' W 063°37'0 0.0
2014-Jun-29 13:33N 44°41' W 063°37'0 0.0
2014-Jun-29 12:33N 44°41' W 063°37'0 0.0
2014-Jun-29 11:24N 44°41' W 063°37'0 0.0
2014-Jun-29 10:27N 44°41' W 063°37'0 0.0
2014-Jun-29 09:24N 44°41' W 063°37'0 0.0
2014-Jun-29 08:27N 44°41' W 063°37'0 0.0
2014-Jun-29 07:30N 44°41' W 063°37'0 0.0
2014-Jun-29 06:30N 44°41' W 063°37'0 0.0
2014-Jun-29 05:30N 44°41' W 063°37'0 0.0
2014-Jun-29 04:33N 44°41' W 063°37'0 0.0
2014-Jun-29 03:33N 44°41' W 063°37'0 0.0
2014-Jun-29 02:33N 44°41' W 063°37'0 0.0
2014-Jun-29 01:33N 44°41' W 063°37'0 0.0
2014-Jun-29 00:33N 44°41' W 063°37'0 0.0
2014-Jun-28 23:33N 44°41' W 063°37'0 0.0
2014-Jun-28 22:24N 44°41' W 063°37'0 0.0
2014-Jun-28 21:24N 44°41' W 063°37'0 0.0
2014-Jun-28 20:27N 44°41' W 063°37'0 0.0
2014-Jun-28 19:27N 44°41' W 063°37'0 0.0
2014-Jun-28 18:27N 44°41' W 063°37'0 0.0
2014-Jun-28 17:30N 44°41' W 063°37'0 0.0
2014-Jun-28 16:30N 44°41' W 063°37'0 0.0
2014-Jun-28 15:30N 44°41' W 063°37'0 0.0
2014-Jun-28 14:33N 44°41' W 063°37'  

Dump ship's entire track history